createdAt,value
2023-03-23T15:58:26.714Z,2.45
2023-03-23T16:00:54.062Z,2.45
2023-03-23T16:03:27.840Z,3.08
2023-03-23T16:05:57.709Z,2.15
2023-03-23T16:08:25.009Z,2.15
2023-03-23T16:10:52.454Z,1.95
2023-03-23T16:13:19.764Z,2.42
2023-03-23T16:15:47.985Z,2.10
2023-03-23T16:18:21.798Z,2.13
2023-03-23T16:20:50.461Z,2.70
2023-03-23T16:23:18.619Z,2.20
2023-03-23T16:25:45.985Z,2.72
2023-03-23T16:28:14.545Z,2.55
2023-03-23T16:30:44.695Z,1.98
2023-03-23T16:33:12.081Z,1.90
2023-03-23T16:35:39.853Z,2.35
2023-03-23T16:38:09.249Z,1.88
2023-03-23T16:40:38.113Z,2.40
2023-03-23T16:43:09.168Z,2.03
2023-03-23T16:45:40.005Z,2.08
2023-03-23T16:48:10.363Z,2.45
2023-03-23T16:50:39.345Z,2.05
2023-03-23T16:53:08.403Z,2.30
2023-03-23T16:55:37.094Z,2.50
2023-03-23T16:58:16.273Z,2.50
2023-03-23T17:00:46.041Z,2.65
2023-03-23T17:03:13.654Z,2.40
2023-03-23T17:05:41.227Z,2.78
2023-03-23T17:08:08.657Z,2.35
2023-03-23T17:10:38.753Z,2.35
2023-03-23T17:13:06.629Z,2.85
2023-03-23T17:15:37.242Z,2.40
2023-03-23T17:18:05.189Z,2.42
2023-03-23T17:20:32.630Z,2.45
2023-03-23T17:23:00.511Z,2.60
2023-03-23T17:25:30.615Z,2.60
2023-03-23T17:28:05.478Z,2.08
2023-03-23T17:30:34.974Z,2.60
2023-03-23T17:33:02.358Z,1.90
2023-03-23T17:35:29.684Z,1.95
2023-03-23T17:37:57.255Z,2.55
2023-03-23T17:40:24.579Z,2.25
2023-03-23T17:42:51.846Z,2.13
2023-03-23T17:45:19.306Z,2.42
2023-03-23T17:47:46.710Z,2.40
2023-03-23T17:50:14.262Z,2.50
2023-03-23T17:52:43.581Z,2.17
2023-03-23T17:55:11.498Z,2.28
2023-03-23T17:57:39.971Z,2.88
2023-03-23T18:00:08.990Z,2.53
2023-03-23T18:02:37.480Z,2.50
2023-03-23T18:05:06.656Z,2.20
2023-03-23T18:07:34.183Z,2.70
2023-03-23T18:10:01.450Z,2.78
2023-03-23T18:12:30.418Z,2.67
2023-03-23T18:14:59.096Z,2.63
2023-03-23T18:17:27.154Z,2.83
2023-03-23T18:19:54.707Z,3.30
2023-03-23T18:22:22.268Z,2.55
2023-03-23T18:24:49.752Z,2.40
2023-03-23T18:27:17.483Z,3.03
2023-03-23T18:29:44.847Z,2.63
2023-03-23T18:32:12.222Z,2.92
2023-03-23T18:34:42.008Z,2.60
2023-03-23T18:37:09.390Z,2.47
2023-03-23T18:39:38.214Z,2.28
2023-03-23T18:42:06.498Z,2.70
2023-03-23T18:44:34.268Z,2.80
2023-03-23T18:47:01.712Z,2.67
2023-03-23T18:49:30.598Z,2.60
2023-03-23T18:51:57.972Z,2.50
2023-03-23T18:54:25.455Z,2.95
2023-03-23T18:56:52.821Z,2.95
2023-03-23T18:59:20.217Z,2.83
2023-03-23T19:01:47.523Z,2.50
2023-03-23T19:04:14.931Z,2.42
2023-03-23T19:06:42.274Z,2.70
2023-03-23T19:09:09.595Z,2.88
2023-03-23T19:11:36.945Z,2.75
2023-03-23T19:14:05.280Z,3.15
2023-03-23T19:16:36.165Z,2.70
2023-03-23T19:19:05.572Z,3.13
2023-03-23T19:21:32.961Z,3.25
2023-03-23T19:24:01.518Z,2.45
2023-03-23T19:26:33.951Z,3.60
2023-03-23T19:29:25.142Z,2.70
2023-03-23T19:31:52.615Z,2.20
2023-03-23T19:34:20.027Z,3.33
2023-03-23T19:36:54.187Z,3.10
2023-03-23T19:39:22.323Z,3.10
2023-03-23T19:41:50.650Z,2.92
2023-03-23T19:44:18.227Z,3.42
2023-03-23T19:46:46.992Z,2.58
2023-03-23T19:49:14.768Z,2.47
2023-03-23T19:51:42.151Z,3.17
2023-03-23T19:54:09.425Z,2.90
2023-03-23T19:56:37.210Z,3.53
2023-03-23T19:59:05.275Z,3.10
2023-03-23T20:01:33.058Z,3.50
2023-03-23T20:04:05.254Z,3.30
2023-03-23T20:06:33.314Z,3.30
2023-03-23T20:09:01.409Z,2.80
2023-03-23T20:11:29.920Z,3.05
2023-03-23T20:13:57.751Z,3.20
2023-03-23T20:16:25.890Z,2.80
2023-03-23T20:18:54.319Z,3.00
2023-03-23T20:21:23.061Z,3.22
2023-03-23T20:23:52.790Z,3.25
2023-03-23T20:26:24.559Z,3.05
2023-03-23T20:28:52.340Z,3.33
2023-03-23T20:31:24.520Z,3.75
2023-03-23T20:34:01.050Z,3.25
2023-03-23T20:36:35.266Z,3.30
2023-03-23T20:39:05.611Z,3.63
2023-03-23T20:41:36.442Z,2.78
2023-03-23T20:44:05.584Z,3.97
2023-03-23T20:46:33.394Z,3.42
2023-03-23T20:49:01.352Z,2.80
2023-03-23T20:51:28.650Z,3.20
2023-03-23T20:53:55.926Z,3.30
2023-03-23T20:56:24.694Z,3.28
2023-03-23T20:58:52.214Z,3.47
2023-03-23T21:01:21.873Z,3.53
2023-03-23T21:03:52.453Z,3.92
2023-03-23T21:06:21.426Z,3.88
2023-03-23T21:08:49.022Z,3.55
2023-03-23T21:11:19.464Z,4.70
2023-03-23T21:13:46.986Z,4.15
2023-03-23T21:16:14.427Z,4.10
2023-03-23T21:18:42.145Z,4.30
2023-03-23T21:21:11.506Z,4.68
2023-03-23T21:23:47.465Z,4.63
2023-03-23T21:26:17.278Z,4.47
2023-03-23T21:28:45.542Z,3.78
2023-03-23T21:31:13.885Z,4.47
2023-03-23T21:33:41.874Z,4.80
2023-03-23T21:36:10.263Z,4.53
2023-03-23T21:38:38.589Z,4.07
2023-03-23T21:41:08.757Z,4.88
2023-03-23T21:43:36.458Z,4.25
2023-03-23T21:46:06.217Z,4.72
2023-03-23T21:48:33.513Z,4.50
2023-03-23T21:51:09.901Z,4.35
2023-03-23T21:53:37.382Z,3.58
2023-03-23T21:56:06.499Z,3.92
2023-03-23T21:58:34.365Z,4.00
2023-03-23T22:01:02.486Z,4.22
2023-03-23T22:03:35.492Z,5.18
2023-03-23T22:08:47.133Z,3.85
2023-03-23T22:11:18.207Z,3.95
2023-03-23T22:13:45.727Z,3.33
2023-03-23T22:16:14.749Z,3.88
2023-03-23T22:18:43.558Z,4.53
2023-03-23T22:21:11.738Z,3.55
2023-03-23T22:23:40.096Z,4.22
2023-03-23T22:26:07.984Z,4.28
2023-03-23T22:28:37.277Z,4.20
2023-03-23T22:31:09.559Z,4.00
2023-03-23T22:33:37.275Z,4.10
2023-03-23T22:36:06.904Z,3.72
2023-03-23T22:38:35.824Z,3.75
2023-03-23T22:41:07.210Z,4.30
2023-03-23T22:43:35.795Z,3.72
2023-03-23T22:46:04.311Z,3.97
2023-03-23T22:48:31.978Z,3.53
2023-03-23T22:50:59.574Z,4.28
2023-03-23T22:53:27.081Z,4.28
2023-03-23T22:55:56.032Z,4.57
2023-03-23T22:58:24.506Z,3.88
2023-03-23T23:00:57.620Z,3.90
2023-03-23T23:03:25.590Z,4.25
2023-03-23T23:05:54.828Z,3.90
2023-03-23T23:08:23.304Z,4.70
2023-03-23T23:10:52.434Z,4.80
2023-03-23T23:13:20.860Z,4.55
2023-03-23T23:15:51.537Z,3.85
2023-03-23T23:18:19.540Z,4.28
2023-03-23T23:20:59.281Z,4.43
2023-03-23T23:23:27.548Z,3.85
2023-03-23T23:25:55.449Z,4.18
2023-03-23T23:28:23.187Z,4.78
2023-03-23T23:30:51.172Z,3.53
2023-03-23T23:33:19.234Z,3.88
2023-03-23T23:35:48.108Z,4.30
2023-03-23T23:38:16.858Z,4.50
2023-03-23T23:40:45.530Z,4.15
2023-03-23T23:43:14.956Z,4.72
2023-03-23T23:45:42.587Z,4.88
2023-03-23T23:48:10.119Z,4.57
2023-03-23T23:50:37.553Z,4.32
2023-03-23T23:53:05.294Z,4.50
2023-03-23T23:55:32.868Z,4.25
2023-03-23T23:58:00.589Z,4.55
